Pagrindinis puslapis
METAR-TAF:

METAR-TAF

Oro uostai :

Kvala Lumpūro tarptautinis oro uostas

Kvala Lumpūras, Malaizija

platuma: 02-44N, ilguma: 101-42E, Aukštis: 21 m

Dabartinis oras

Ataskaita buvo paskelbta 13 minutes, ne 21:00 UTC
Vėjas 3 kt nuo kintamojo kryptimis
Temperatūra 26°C
Drėgmė 84%
Slėgis 1008 hPa
Matomumas: 5000 m
Mažai debesys ne aukštis 3000 ft
Išsisklaidę debesys ne aukštis 14000 ft
Su prošvaistėmis ne aukštis 28000 ft
migla

METAR: WMKK 202100Z VRB03KT 5000 HZ FEW030 SCT140 BKN280 26/23 Q1008 NOSIG

Laikas: 05:13 (21:13 UTC)

Prognozė

Ataskaita buvo paskelbta 4 valandos ir 13 minutes, ne 17:00 UTC
Prognozė galioja nuo 20 metu 18 UTC su 22 metu 00 UTC
Vėjas 5 kt iš Pietų/Pietryčių
Matomumas: 5000 m
Mažai debesys ne aukštis 3000 ft
migla
Tapsmas
nuo 21 metu 00 UTC su 21 metu 02 UTC
Matomumas: 3000 m
Mažai debesys ne aukštis 1800 ft
migla
Tapsmas
nuo 21 metu 12 UTC su 21 metu 13 UTC
Mažai debesys ne aukštis 3000 ft

TAF: WMKK 201700Z 2018/2200 15005KT 5000 HZ FEW030 BECMG 2100/2102 3000 HZ FEW018 BECMG 2112/2113 FEW030

Orai ataskaitas ir orų prognozės (METAR, TAF).

turimą stotys yra geltonos ir raudonos taškus žemėlapyje.

Perkelti pele per norėdami pamatyti stoties vardą.

Tada spustelėkite, norėdami matyti oro stebėjimo ir prognozės.

Norėdami pakeisti žemėlapį: spustelėkite ant žalios mygtukų su juodo kryžiaus žemyn,; žalią mygtuką su brūkšneliu, jei norite nutolinti; arba žalių rodyklių gretimoms žemėlapius.


METAR-TAF: